Time;durP1;ratioP1;P1;durP2;ratioP2;P2;SDS_P1;SDS_P2;PMS_P1;PMS_P2;Temp;Humidity;BMP_temperature;BMP_pressure;BME280_temperature;BME280_humidity;BME280_pressure;Samples;Min_cycle;Max_cycle;Signal;HPM_P1;HPM_P2
2022/10/03 00:00:10;;;;;;;6.32;1.08;;;9.30;99.90;;;;;;5113765;28;20090;-80
2022/10/03 00:02:55;;;;;;;2.97;1.27;;;9.40;99.90;;;;;;5087718;28;20134;-78
2022/10/03 00:05:44;;;;;;;9.63;1.23;;;9.30;99.90;;;;;;5087396;28;20036;-79
2022/10/03 00:08:37;;;;;;;10.95;1.35;;;9.30;99.90;;;;;;5087596;28;20047;-79
2022/10/03 00:11:20;;;;;;;13.02;1.38;;;9.30;99.90;;;;;;5098156;28;20043;-78
2022/10/03 00:13:49;;;;;;;5.35;0.98;;;9.30;99.90;;;;;;5087712;28;20041;-80
2022/10/03 00:16:23;;;;;;;11.05;1.50;;;9.30;99.90;;;;;;5085961;28;20059;-79
2022/10/03 00:19:03;;;;;;;7.15;1.13;;;9.30;99.90;;;;;;5114451;27;20050;-79
2022/10/03 00:22:02;;;;;;;9.73;1.73;;;9.30;99.90;;;;;;5106194;28;20056;-79
2022/10/03 00:24:43;;;;;;;4.93;1.38;;;9.30;99.90;;;;;;5101206;28;20054;-79
2022/10/03 00:27:15;;;;;;;11.38;1.75;;;9.30;99.90;;;;;;5086552;28;20063;-79
2022/10/03 00:30:15;;;;;;;14.20;1.58;;;9.20;99.90;;;;;;5121268;28;20056;-79
2022/10/03 00:33:20;;;;;;;6.55;1.55;;;9.20;99.90;;;;;;5106436;28;20040;-78
2022/10/03 00:35:55;;;;;;;6.45;1.38;;;9.20;99.90;;;;;;5098459;28;20039;-79
2022/10/03 00:39:02;;;;;;;10.32;1.52;;;9.20;99.90;;;;;;5087791;28;20106;-79
2022/10/03 00:42:15;;;;;;;7.32;1.35;;;9.20;99.90;;;;;;5088839;28;20074;-78
2022/10/03 00:44:44;;;;;;;16.58;1.13;;;9.20;99.90;;;;;;5077108;28;20061;-79
2022/10/03 00:47:28;;;;;;;6.68;0.90;;;9.20;99.90;;;;;;5082229;28;20065;-78
2022/10/03 00:50:29;;;;;;;13.23;2.08;;;9.20;99.90;;;;;;5100486;28;20044;-78
2022/10/03 00:53:04;;;;;;;8.95;1.48;;;9.10;99.90;;;;;;5092791;28;20051;-78
2022/10/03 00:56:06;;;;;;;6.43;1.25;;;9.10;99.90;;;;;;5088502;28;20051;-78
2022/10/03 00:58:51;;;;;;;4.13;0.90;;;9.10;99.90;;;;;;5118001;28;20052;-78
2022/10/03 01:01:33;;;;;;;5.05;0.98;;;9.10;99.90;;;;;;5092175;28;20046;-78
2022/10/03 01:04:31;;;;;;;8.13;1.63;;;9.10;99.90;;;;;;5095308;28;20055;-78
2022/10/03 01:06:59;;;;;;;7.53;0.80;;;9.00;99.90;;;;;;5090114;28;20044;-78
2022/10/03 01:09:57;;;;;;;6.70;1.08;;;9.00;99.90;;;;;;5100701;28;20047;-78
2022/10/03 01:12:47;;;;;;;8.63;1.30;;;9.00;99.90;;;;;;5088780;28;20055;-79
2022/10/03 01:15:54;;;;;;;4.90;1.23;;;9.00;99.90;;;;;;5093762;28;20088;-78
2022/10/03 01:18:19;;;;;;;1.85;0.68;;;8.90;99.90;;;;;;5065558;28;20062;-78
2022/10/03 01:20:57;;;;;;;4.70;1.10;;;8.90;99.90;;;;;;5104670;28;20044;-78
2022/10/03 01:23:42;;;;;;;5.13;1.00;;;8.90;99.90;;;;;;5094817;28;20048;-79
2022/10/03 01:26:26;;;;;;;2.83;0.77;;;8.90;99.90;;;;;;5108424;28;20039;-79
2022/10/03 01:32:19;;;;;;;6.55;0.93;;;8.80;99.90;;;;;;5088266;28;20064;-79
2022/10/03 01:34:50;;;;;;;6.63;1.43;;;8.80;99.90;;;;;;5084347;28;20036;-78
2022/10/03 01:37:30;;;;;;;10.30;1.63;;;8.80;99.90;;;;;;5072551;28;20044;-78
2022/10/03 01:40:03;;;;;;;11.13;1.20;;;8.80;99.90;;;;;;5113174;28;20520;-78
2022/10/03 01:42:43;;;;;;;12.25;1.15;;;8.80;99.90;;;;;;5087755;28;20039;-78
2022/10/03 01:45:25;;;;;;;3.95;0.98;;;8.80;99.90;;;;;;5102127;28;20082;-78
2022/10/03 01:48:03;;;;;;;7.40;1.50;;;8.80;99.90;;;;;;5109058;28;20051;-78
2022/10/03 01:50:29;;;;;;;7.72;1.10;;;8.80;99.90;;;;;;5099596;28;20048;-78
2022/10/03 01:53:32;;;;;;;6.00;1.48;;;8.80;99.90;;;;;;5084047;28;20043;-78
2022/10/03 01:56:09;;;;;;;4.85;0.70;;;8.80;99.90;;;;;;5092648;28;20045;-78
2022/10/03 01:58:40;;;;;;;4.13;1.25;;;8.80;99.90;;;;;;5117196;28;20051;-78
2022/10/03 02:01:28;;;;;;;10.40;2.20;;;8.80;99.90;;;;;;5098903;28;20073;-78
2022/10/03 02:04:03;;;;;;;8.60;1.95;;;8.70;99.90;;;;;;5104619;28;20050;-78
2022/10/03 02:06:32;;;;;;;6.43;1.17;;;8.80;99.90;;;;;;5094102;28;20048;-78
2022/10/03 02:09:19;;;;;;;7.00;1.48;;;8.80;99.90;;;;;;5091331;28;20065;-78
2022/10/03 02:11:49;;;;;;;6.38;1.33;;;8.80;99.90;;;;;;5080749;28;20040;-78
2022/10/03 02:14:44;;;;;;;7.97;1.38;;;8.80;99.90;;;;;;5082411;28;20537;-78
2022/10/03 02:17:27;;;;;;;7.07;1.48;;;8.80;99.90;;;;;;5089544;28;20044;-78
2022/10/03 02:20:17;;;;;;;6.47;1.20;;;8.80;99.90;;;;;;5082013;28;20052;-78
2022/10/03 02:22:52;;;;;;;7.50;1.30;;;8.80;99.90;;;;;;5084767;28;20490;-79
2022/10/03 02:25:49;;;;;;;7.68;1.38;;;8.90;99.90;;;;;;5088483;28;20044;-79
2022/10/03 02:28:45;;;;;;;5.45;1.88;;;8.90;99.90;;;;;;5083982;28;20056;-77
2022/10/03 02:31:31;;;;;;;8.90;1.50;;;8.80;99.90;;;;;;5083647;28;20048;-78
2022/10/03 02:34:06;;;;;;;9.43;2.42;;;8.80;99.90;;;;;;5098079;28;20074;-79
2022/10/03 02:36:34;;;;;;;6.07;1.52;;;8.80;99.90;;;;;;5096162;28;20046;-79
2022/10/03 02:39:19;;;;;;;8.93;1.17;;;8.80;99.90;;;;;;5104616;28;20052;-79
2022/10/03 02:42:16;;;;;;;16.65;2.65;;;8.80;99.90;;;;;;5102841;28;20039;-79
2022/10/03 02:45:00;;;;;;;9.40;1.10;;;8.80;99.90;;;;;;5092320;28;20051;-79
2022/10/03 02:48:13;;;;;;;9.68;2.35;;;8.80;99.90;;;;;;5089460;28;20051;-79
2022/10/03 02:50:54;;;;;;;10.48;1.52;;;8.80;99.90;;;;;;5091493;28;20055;-78
2022/10/03 02:53:35;;;;;;;6.82;1.23;;;8.80;99.90;;;;;;5094811;28;20071;-79
2022/10/03 02:56:25;;;;;;;6.20;1.10;;;8.70;99.90;;;;;;5130075;27;20164;-79
2022/10/03 02:59:22;;;;;;;11.63;2.17;;;8.80;99.90;;;;;;5096581;28;20059;-79
2022/10/03 03:01:59;;;;;;;10.63;1.27;;;8.70;99.90;;;;;;5090683;28;20096;-80
2022/10/03 03:04:58;;;;;;;5.10;1.20;;;8.70;99.90;;;;;;5088863;28;20515;-79
2022/10/03 03:08:07;;;;;;;7.47;1.20;;;8.70;99.90;;;;;;5085621;28;20036;-79
2022/10/03 03:10:51;;;;;;;5.18;1.13;;;8.70;99.90;;;;;;5113165;28;20044;-79
2022/10/03 03:13:41;;;;;;;8.20;1.20;;;8.70;99.90;;;;;;5100460;28;20077;-79
2022/10/03 03:16:10;;;;;;;6.68;1.33;;;8.70;99.90;;;;;;5092778;28;20087;-79
2022/10/03 03:18:43;;;;;;;8.68;1.83;;;8.70;99.90;;;;;;5085222;28;20048;-79
2022/10/03 03:21:33;;;;;;;3.47;1.63;;;8.60;99.90;;;;;;5081820;28;20116;-80
2022/10/03 03:24:28;;;;;;;5.70;1.08;;;8.60;99.90;;;;;;5092701;28;20048;-79
2022/10/03 03:26:54;;;;;;;6.88;1.00;;;8.70;99.90;;;;;;5082653;28;20047;-79
2022/10/03 03:29:36;;;;;;;8.95;1.65;;;8.60;99.90;;;;;;5095580;28;20127;-79
2022/10/03 03:32:27;;;;;;;10.73;1.83;;;8.60;99.90;;;;;;5105357;28;20055;-79
2022/10/03 03:35:05;;;;;;;2.33;0.93;;;8.50;99.90;;;;;;5106009;28;20490;-79
2022/10/03 03:37:54;;;;;;;3.63;1.98;;;8.50;99.90;;;;;;5096464;28;20047;-79
2022/10/03 03:40:32;;;;;;;4.43;1.58;;;8.50;99.90;;;;;;5088943;28;20051;-79
2022/10/03 03:43:17;;;;;;;4.82;1.48;;;8.50;99.90;;;;;;5083480;28;20048;-79
2022/10/03 03:46:03;;;;;;;5.05;0.95;;;8.50;99.90;;;;;;5086560;28;20052;-79
2022/10/03 03:48:50;;;;;;;6.28;1.05;;;8.60;99.90;;;;;;5094447;28;20589;-78
2022/10/03 03:51:32;;;;;;;10.60;1.33;;;8.50;99.90;;;;;;5063619;28;20040;-79
2022/10/03 03:54:03;;;;;;;4.72;1.60;;;8.50;99.90;;;;;;5092449;28;20071;-79
2022/10/03 03:56:46;;;;;;;6.90;1.15;;;8.40;99.90;;;;;;5115730;28;20056;-79
2022/10/03 03:59:24;;;;;;;4.73;1.07;;;8.40;99.90;;;;;;5097229;28;20052;-79
2022/10/03 04:01:50;;;;;;;6.40;1.10;;;8.40;99.90;;;;;;5065182;28;20306;-79
2022/10/03 04:04:53;;;;;;;4.90;0.88;;;8.40;99.90;;;;;;5115209;28;20078;-79
2022/10/03 04:07:21;;;;;;;6.55;0.88;;;8.40;99.90;;;;;;5074165;28;20044;-80
2022/10/03 04:09:53;;;;;;;7.85;1.08;;;8.40;99.90;;;;;;5092439;28;20422;-79
2022/10/03 04:12:35;;;;;;;5.88;1.25;;;8.40;99.90;;;;;;5114382;28;20091;-80
2022/10/03 04:15:26;;;;;;;4.03;0.93;;;8.40;99.90;;;;;;5090754;28;20098;-79
2022/10/03 04:21:19;;;;;;;6.78;0.75;;;8.40;99.90;;;;;;5106206;28;20040;-80
2022/10/03 04:24:00;;;;;;;10.98;2.72;;;8.40;99.90;;;;;;5097903;28;20040;-79
2022/10/03 04:26:38;;;;;;;4.82;1.38;;;8.40;99.90;;;;;;5075184;28;20118;-79
2022/10/03 04:29:22;;;;;;;3.78;1.27;;;8.40;99.90;;;;;;5097669;28;20052;-79
2022/10/03 04:32:25;;;;;;;10.15;1.92;;;8.30;99.90;;;;;;5088045;28;20070;-79
2022/10/03 04:35:03;;;;;;;8.98;1.88;;;8.30;99.90;;;;;;5084432;28;20051;-78
2022/10/03 04:37:41;;;;;;;128.75;68.43;;;8.30;99.90;;;;;;5116404;28;20138;-79
2022/10/03 04:40:25;;;;;;;34.25;14.52;;;8.30;99.90;;;;;;5094010;28;20039;-79
2022/10/03 04:42:57;;;;;;;17.42;6.88;;;8.30;99.90;;;;;;5096486;28;20040;-79
2022/10/03 04:45:58;;;;;;;8.90;3.30;;;8.30;99.90;;;;;;5089459;28;20050;-78
2022/10/03 04:48:32;;;;;;;4.72;1.50;;;8.30;99.90;;;;;;5094010;28;20067;-79
2022/10/03 04:51:03;;;;;;;8.90;2.03;;;8.40;99.90;;;;;;5102932;28;20074;-79
2022/10/03 04:53:52;;;;;;;13.90;1.85;;;8.30;99.90;;;;;;5090154;28;20055;-79
2022/10/03 04:56:24;;;;;;;10.70;1.80;;;8.30;99.90;;;;;;5118793;28;20484;-78
2022/10/03 04:59:16;;;;;;;3.72;1.48;;;8.30;99.90;;;;;;5086546;28;20090;-79
2022/10/03 05:01:50;;;;;;;7.15;1.85;;;8.30;99.90;;;;;;5111699;28;20063;-79
2022/10/03 05:04:26;;;;;;;23.90;7.78;;;8.30;99.90;;;;;;5115344;28;20662;-79
2022/10/03 05:07:10;;;;;;;26.75;10.85;;;8.30;99.90;;;;;;5123407;28;20052;-78
2022/10/03 05:09:57;;;;;;;9.88;4.65;;;8.30;99.90;;;;;;5103099;28;20046;-79
2022/10/03 05:12:34;;;;;;;10.23;3.78;;;8.30;99.90;;;;;;5090760;28;20048;-80
2022/10/03 05:15:28;;;;;;;3.78;1.50;;;8.30;99.90;;;;;;5100767;28;20065;-79
2022/10/03 05:18:16;;;;;;;4.40;1.35;;;8.30;99.90;;;;;;5084216;28;20421;-79
2022/10/03 05:20:53;;;;;;;3.65;1.50;;;8.20;99.90;;;;;;5106932;28;20117;-79
2022/10/03 05:24:01;;;;;;;3.03;1.08;;;8.20;99.90;;;;;;5102395;28;20470;-79
2022/10/03 05:26:44;;;;;;;5.05;2.38;;;8.20;99.90;;;;;;5113739;28;20052;-80
2022/10/03 05:29:37;;;;;;;12.13;4.50;;;8.20;99.90;;;;;;5090499;28;20104;-79
2022/10/03 05:32:26;;;;;;;;;;;8.20;99.90;;;;;;5095302;28;20047;-80
2022/10/03 05:35:09;;;;;;;9.77;4.57;;;8.20;99.90;;;;;;5101508;28;19923;-80
2022/10/03 05:37:59;;;;;;;6.40;1.92;;;8.20;99.90;;;;;;5091530;28;20039;-80
2022/10/03 05:40:28;;;;;;;7.07;1.90;;;8.20;99.90;;;;;;5085774;28;20044;-79
2022/10/03 05:43:22;;;;;;;5.38;2.10;;;8.20;99.90;;;;;;5091005;28;20105;-81
2022/10/03 05:45:48;;;;;;;3.20;1.83;;;8.20;99.90;;;;;;5081737;28;20104;-80
2022/10/03 05:48:38;;;;;;;5.45;2.53;;;8.20;99.90;;;;;;5084247;28;20092;-80
2022/10/03 05:51:32;;;;;;;7.38;1.50;;;8.20;99.90;;;;;;5112362;28;20043;-81
2022/10/03 05:54:38;;;;;;;3.58;1.38;;;8.10;99.90;;;;;;5102791;28;20044;-79
2022/10/03 05:57:32;;;;;;;6.95;2.10;;;8.10;99.90;;;;;;5101277;28;20047;-79
2022/10/03 06:00:08;;;;;;;3.97;1.50;;;8.10;99.90;;;;;;5103764;28;20055;-79
2022/10/03 06:02:39;;;;;;;2.83;1.25;;;8.20;99.90;;;;;;5122452;28;20043;-80
2022/10/03 06:05:40;;;;;;;2.97;1.20;;;8.20;99.90;;;;;;5119146;28;20472;-79
2022/10/03 06:08:18;;;;;;;4.68;2.50;;;8.30;99.90;;;;;;5087258;28;20080;-80
2022/10/03 06:10:51;;;;;;;3.25;1.73;;;8.20;99.90;;;;;;5100054;28;20048;-79
2022/10/03 06:13:25;;;;;;;5.18;1.42;;;8.20;99.90;;;;;;5099150;28;20048;-79
2022/10/03 06:16:03;;;;;;;2.35;1.27;;;8.30;99.90;;;;;;5099242;28;20142;-79
2022/10/03 06:18:52;;;;;;;5.78;1.30;;;8.20;99.90;;;;;;5103658;28;20078;-79
2022/10/03 06:21:23;;;;;;;5.30;1.60;;;8.30;99.90;;;;;;5105610;28;20110;-79
2022/10/03 06:24:32;;;;;;;5.97;1.60;;;8.30;99.90;;;;;;5101604;28;20056;-80
2022/10/03 06:27:35;;;;;;;3.67;1.25;;;8.40;99.90;;;;;;5082140;28;20286;-79
2022/10/03 06:30:35;;;;;;;5.53;2.40;;;8.40;99.90;;;;;;5100170;28;20108;-80
2022/10/03 06:33:49;;;;;;;8.40;1.75;;;8.50;99.90;;;;;;5101434;28;20098;-79
2022/10/03 06:36:54;;;;;;;3.78;1.60;;;8.50;99.90;;;;;;5079714;28;20067;-79
2022/10/03 06:39:44;;;;;;;7.57;1.45;;;8.60;99.90;;;;;;5084747;28;20052;-79
2022/10/03 06:42:16;;;;;;;7.90;1.73;;;8.60;99.90;;;;;;5123415;27;20062;-80
2022/10/03 06:45:08;;;;;;;3.77;1.37;;;8.60;99.90;;;;;;5102976;28;20052;-80
2022/10/03 06:47:58;;;;;;;6.32;1.65;;;8.70;99.90;;;;;;5102684;28;20069;-80
2022/10/03 06:50:36;;;;;;;5.53;1.45;;;8.70;99.90;;;;;;5109940;28;20047;-79
2022/10/03 06:53:11;;;;;;;6.75;2.75;;;8.70;99.90;;;;;;5082207;28;20052;-81
2022/10/03 06:56:06;;;;;;;5.45;1.70;;;8.80;99.90;;;;;;5083960;28;20086;-80
2022/10/03 06:58:35;;;;;;;7.35;1.60;;;8.90;99.90;;;;;;5101352;28;20115;-80
2022/10/03 07:01:42;;;;;;;3.72;1.25;;;8.90;99.90;;;;;;5097856;28;20036;-80
2022/10/03 07:04:23;;;;;;;5.70;1.83;;;9.00;99.90;;;;;;5101239;28;20055;-79
2022/10/03 07:07:16;;;;;;;6.07;1.50;;;9.10;99.90;;;;;;5103700;28;20051;-79
2022/10/03 07:09:44;;;;;;;9.27;2.67;;;9.10;99.90;;;;;;5119230;28;20158;-79
2022/10/03 07:12:32;;;;;;;10.43;1.90;;;9.20;99.90;;;;;;5088879;28;20113;-79
2022/10/03 07:15:39;;;;;;;5.57;1.50;;;9.40;99.90;;;;;;5082525;28;20135;-79
2022/10/03 07:18:32;;;;;;;3.25;1.52;;;9.50;99.90;;;;;;5079983;28;20044;-79
2022/10/03 07:21:16;;;;;;;8.57;4.07;;;9.70;99.90;;;;;;5092204;28;20047;-79
2022/10/03 07:23:54;;;;;;;7.45;1.83;;;9.80;99.90;;;;;;5103683;28;20048;-79
2022/10/03 07:26:54;;;;;;;7.32;1.65;;;9.80;99.90;;;;;;5102716;28;20051;-79
2022/10/03 07:29:33;;;;;;;6.63;1.80;;;9.90;99.90;;;;;;5101802;28;20056;-79
2022/10/03 07:32:11;;;;;;;10.35;2.65;;;10.10;99.90;;;;;;5102430;28;20074;-79
2022/10/03 07:34:48;;;;;;;6.22;1.50;;;10.30;99.90;;;;;;5103013;28;20035;-80
2022/10/03 07:40:07;;;;;;;6.25;1.58;;;10.50;99.90;;;;;;5102468;28;20084;-80
2022/10/03 07:42:54;;;;;;;8.93;1.77;;;10.60;99.90;;;;;;5083588;28;20040;-79
2022/10/03 07:45:38;;;;;;;6.35;1.80;;;10.70;99.90;;;;;;5101452;28;20048;-79
2022/10/03 07:48:24;;;;;;;7.40;1.45;;;10.80;99.90;;;;;;5098091;28;20086;-79
2022/10/03 07:51:02;;;;;;;7.95;1.58;;;10.90;99.90;;;;;;5104661;28;20104;-79
2022/10/03 07:54:08;;;;;;;4.93;1.30;;;11.00;99.90;;;;;;5102427;28;20051;-79
2022/10/03 07:57:13;;;;;;;7.97;1.80;;;11.10;99.90;;;;;;5118314;28;20055;-79
2022/10/03 08:00:02;;;;;;;9.52;1.90;;;11.20;99.90;;;;;;5103896;28;20055;-79
2022/10/03 08:02:58;;;;;;;9.73;1.45;;;11.30;99.90;;;;;;5106973;28;20111;-79
2022/10/03 08:05:55;;;;;;;8.30;1.83;;;11.30;99.90;;;;;;5101505;28;20090;-79
2022/10/03 08:08:36;;;;;;;2.03;1.15;;;11.50;99.90;;;;;;5100095;28;20075;-79
2022/10/03 08:11:20;;;;;;;4.75;1.30;;;11.60;99.90;;;;;;5100754;28;20071;-79
2022/10/03 08:14:05;;;;;;;4.13;1.05;;;11.70;99.90;;;;;;5097996;28;20059;-79
2022/10/03 08:17:18;;;;;;;8.32;1.45;;;11.80;99.90;;;;;;5083262;28;20081;-79
2022/10/03 08:19:59;;;;;;;12.20;1.60;;;11.90;99.90;;;;;;5077699;28;20529;-78
2022/10/03 08:23:01;;;;;;;5.05;1.88;;;12.00;99.90;;;;;;5089799;28;20033;-79
2022/10/03 08:25:51;;;;;;;9.23;1.60;;;12.20;99.90;;;;;;5099816;28;20549;-79
2022/10/03 08:28:54;;;;;;;7.45;1.75;;;12.30;99.90;;;;;;5100069;28;20127;-78
2022/10/03 08:31:43;;;;;;;4.88;1.88;;;12.40;99.90;;;;;;5082247;28;20059;-79
2022/10/03 08:34:46;;;;;;;3.60;1.00;;;12.50;99.90;;;;;;5093769;28;20122;-78
2022/10/03 08:37:43;;;;;;;7.53;1.33;;;12.60;99.90;;;;;;5107440;28;20044;-78
2022/10/03 08:40:43;;;;;;;6.93;1.77;;;12.70;99.90;;;;;;5105302;28;20055;-78
2022/10/03 08:43:30;;;;;;;5.03;1.25;;;12.90;99.90;;;;;;5105642;28;20051;-79
2022/10/03 08:46:08;;;;;;;12.93;2.17;;;13.00;99.90;;;;;;5100738;28;20047;-79
2022/10/03 08:48:53;;;;;;;8.27;1.65;;;13.10;99.90;;;;;;5083047;28;20575;-79
2022/10/03 08:51:39;;;;;;;6.97;1.27;;;13.30;99.90;;;;;;5071943;28;20536;-79
2022/10/03 08:54:13;;;;;;;5.82;1.77;;;13.50;99.90;;;;;;5102509;28;20058;-79
2022/10/03 08:56:50;;;;;;;8.20;1.10;;;13.60;99.90;;;;;;5084085;28;20419;-79
2022/10/03 08:59:45;;;;;;;5.25;1.90;;;13.70;99.90;;;;;;5103115;28;20052;-79
2022/10/03 09:02:49;;;;;;;6.28;0.98;;;13.70;99.90;;;;;;5085561;28;20089;-79
2022/10/03 09:05:37;;;;;;;10.73;1.50;;;13.80;99.90;;;;;;5094433;28;20044;-83
2022/10/03 09:08:27;;;;;;;11.30;1.25;;;14.00;99.90;;;;;;5083346;28;20050;-82
2022/10/03 09:11:30;;;;;;;9.73;2.20;;;14.10;99.90;;;;;;5097420;28;20040;-83
2022/10/03 09:14:21;;;;;;;8.98;0.93;;;14.20;99.90;;;;;;5085007;28;20035;-82
2022/10/03 09:16:58;;;;;;;2.28;0.95;;;14.30;99.90;;;;;;5084009;28;20040;-81
2022/10/03 09:20:14;;;;;;;3.65;1.02;;;14.30;99.90;;;;;;5085066;28;20078;-81
2022/10/03 09:23:12;;;;;;;3.47;0.70;;;14.50;99.90;;;;;;5015859;28;20049;-81
2022/10/03 09:25:44;;;;;;;5.18;0.82;;;14.80;99.90;;;;;;5054982;28;20418;-81
2022/10/03 09:28:15;;;;;;;11.82;1.25;;;15.50;99.90;;;;;;5082241;28;20120;-80
2022/10/03 09:31:02;;;;;;;4.78;1.08;;;16.10;99.90;;;;;;5098245;28;20051;-81
2022/10/03 09:34:06;;;;;;;6.93;0.70;;;16.60;99.90;;;;;;5086924;28;20055;-81
2022/10/03 09:37:05;;;;;;;9.65;1.23;;;16.90;99.90;;;;;;5079566;28;20052;-81
2022/10/03 09:39:36;;;;;;;6.20;1.00;;;17.30;99.90;;;;;;5089832;28;20047;-81
2022/10/03 09:42:33;;;;;;;7.28;0.98;;;17.80;99.90;;;;;;5084704;28;20060;-81
2022/10/03 09:45:26;;;;;;;8.02;1.10;;;18.10;99.90;;;;;;5087571;28;20040;-81
2022/10/03 09:48:13;;;;;;;5.35;0.90;;;18.20;99.90;;;;;;5083178;28;20454;-81
2022/10/03 09:50:51;;;;;;;13.95;1.27;;;18.30;99.90;;;;;;5103138;28;20043;-81
2022/10/03 09:53:42;;;;;;;5.28;0.80;;;18.40;99.90;;;;;;5100184;28;20047;-81
2022/10/03 09:56:26;;;;;;;6.10;1.15;;;18.40;99.90;;;;;;5103138;28;20056;-82
2022/10/03 09:59:07;;;;;;;6.53;1.30;;;18.20;99.90;;;;;;5084268;28;20055;-81
2022/10/03 10:01:56;;;;;;;8.48;1.30;;;18.10;99.90;;;;;;5092827;28;20036;-80
2022/10/03 10:04:43;;;;;;;6.15;1.00;;;17.90;99.90;;;;;;5085226;28;20135;-81
2022/10/03 10:07:46;;;;;;;3.70;1.20;;;17.80;99.90;;;;;;5100840;28;20048;-80
2022/10/03 10:10:36;;;;;;;9.15;1.48;;;17.60;99.90;;;;;;5091404;28;20070;-80
2022/10/03 10:13:15;;;;;;;5.63;1.27;;;17.50;99.90;;;;;;5080829;28;20044;-80
2022/10/03 10:16:00;;;;;;;5.95;1.10;;;17.40;99.90;;;;;;5093843;28;20036;-80
2022/10/03 10:18:52;;;;;;;9.30;1.05;;;17.30;99.90;;;;;;5092259;28;20051;-80
2022/10/03 10:21:55;;;;;;;4.03;1.00;;;17.20;99.90;;;;;;5102915;28;20611;-80
2022/10/03 10:24:58;;;;;;;4.85;1.10;;;17.10;99.90;;;;;;5085756;28;20043;-80
2022/10/03 10:27:48;;;;;;;3.28;0.90;;;17.10;99.90;;;;;;5078581;28;20066;-80
2022/10/03 10:30:14;;;;;;;3.60;1.02;;;17.10;99.90;;;;;;5093988;28;20056;-81
2022/10/03 10:32:55;;;;;;;2.83;1.02;;;17.10;99.90;;;;;;5094850;28;20101;-80
2022/10/03 10:35:37;;;;;;;8.15;1.48;;;17.10;99.90;;;;;;5078039;28;20048;-80
2022/10/03 10:38:51;;;;;;;9.95;1.45;;;17.40;99.90;;;;;;5081118;28;20505;-80
2022/10/03 10:41:41;;;;;;;2.90;0.70;;;17.40;99.90;;;;;;5087772;28;20500;-80
2022/10/03 10:44:25;;;;;;;7.88;0.88;;;17.50;99.90;;;;;;5091387;28;20048;-81
2022/10/03 10:47:28;;;;;;;4.85;1.00;;;17.50;99.90;;;;;;5084123;28;20048;-81
2022/10/03 10:50:06;;;;;;;3.05;0.63;;;17.60;99.90;;;;;;5080974;28;20044;-80
2022/10/03 10:52:43;;;;;;;3.45;0.60;;;17.70;99.90;;;;;;5109110;28;20131;-81
2022/10/03 10:55:41;;;;;;;6.47;1.58;;;17.70;99.90;;;;;;5076653;28;20041;-82
2022/10/03 10:58:56;;;;;;;10.40;0.98;;;17.60;99.90;;;;;;5093866;28;20156;-82
2022/10/03 11:02:05;;;;;;;5.93;0.80;;;17.50;99.90;;;;;;5063774;28;20191;-82
2022/10/03 11:04:43;;;;;;;8.23;1.05;;;17.40;99.90;;;;;;5080316;28;20048;-81
2022/10/03 11:07:41;;;;;;;8.50;1.42;;;17.50;99.90;;;;;;5092479;28;20047;-81
2022/10/03 11:10:25;;;;;;;4.53;0.82;;;17.50;99.90;;;;;;5085370;28;20044;-83
2022/10/03 11:13:19;;;;;;;8.85;1.42;;;17.60;99.90;;;;;;5090324;28;20055;-84
2022/10/03 11:15:54;;;;;;;6.32;1.30;;;17.70;99.90;;;;;;5081378;28;20048;-84
2022/10/03 11:18:25;;;;;;;6.65;1.02;;;17.80;99.90;;;;;;5090743;28;20123;-84
2022/10/03 11:21:28;;;;;;;10.98;1.52;;;17.80;99.90;;;;;;5080283;28;20044;-83
2022/10/03 11:24:32;;;;;;;3.00;0.80;;;17.80;99.90;;;;;;5068243;28;20048;-82
2022/10/03 11:27:19;;;;;;;3.85;0.70;;;17.90;99.90;;;;;;5078097;28;20104;-83
2022/10/03 11:30:03;;;;;;;6.95;0.88;;;17.90;99.90;;;;;;5063763;28;20107;-83
2022/10/03 11:33:00;;;;;;;8.07;1.13;;;17.80;99.90;;;;;;5102516;28;20058;-82
2022/10/03 11:35:51;;;;;;;3.75;0.85;;;17.70;99.90;;;;;;5118877;28;20522;-82
2022/10/03 11:38:28;;;;;;;2.08;0.45;;;17.60;99.90;;;;;;5103595;28;20051;-82
2022/10/03 11:41:17;;;;;;;7.05;1.55;;;17.50;99.90;;;;;;5120110;28;20043;-82
2022/10/03 11:43:54;;;;;;;7.72;1.17;;;17.50;99.90;;;;;;5115940;28;20047;-82
2022/10/03 11:46:49;;;;;;;9.35;1.27;;;17.40;99.90;;;;;;5121006;28;20044;-84
2022/10/03 11:49:26;;;;;;;3.80;0.82;;;17.50;99.90;;;;;;5105598;28;20490;-82
2022/10/03 11:52:17;;;;;;;5.70;0.77;;;17.40;99.90;;;;;;5090300;28;20040;-83
2022/10/03 11:54:46;;;;;;;3.05;0.70;;;17.30;99.90;;;;;;5077976;28;20036;-79
2022/10/03 11:57:35;;;;;;;6.28;1.00;;;17.30;99.90;;;;;;5078893;28;20056;-80
2022/10/03 12:00:11;;;;;;;7.10;1.50;;;17.20;99.90;;;;;;5079695;28;20037;-79
2022/10/03 12:02:51;;;;;;;4.70;0.70;;;17.20;99.90;;;;;;5084557;28;20072;-79
2022/10/03 12:05:22;;;;;;;6.90;0.90;;;17.20;99.90;;;;;;5101722;28;20048;-79
2022/10/03 12:10:56;;;;;;;2.58;0.90;;;17.30;99.90;;;;;;5121590;28;20402;-79
2022/10/03 12:13:36;;;;;;;18.63;1.20;;;17.30;99.90;;;;;;5116554;28;20068;-79
2022/10/03 12:16:08;;;;;;;7.45;0.95;;;17.30;99.90;;;;;;5103541;28;20483;-79
2022/10/03 12:18:41;;;;;;;3.17;0.57;;;17.30;99.90;;;;;;5118007;28;20064;-79
2022/10/03 12:21:10;;;;;;;5.00;0.70;;;17.30;99.90;;;;;;5120606;28;20056;-79
2022/10/03 12:24:04;;;;;;;7.30;1.15;;;17.30;99.90;;;;;;5112737;28;20032;-79
2022/10/03 12:26:48;;;;;;;7.15;1.88;;;17.30;99.90;;;;;;5097846;28;20074;-79
2022/10/03 12:29:17;;;;;;;2.83;1.00;;;17.30;99.90;;;;;;5101613;28;20409;-79
2022/10/03 12:31:50;;;;;;;1.80;0.40;;;17.30;99.90;;;;;;5080765;28;20044;-80
2022/10/03 12:34:45;;;;;;;5.00;0.93;;;17.30;99.90;;;;;;5098152;28;20040;-79
2022/10/03 12:37:20;;;;;;;6.25;1.00;;;17.40;99.90;;;;;;5082683;28;20096;-79
2022/10/03 12:40:10;;;;;;;5.00;0.77;;;17.50;99.90;;;;;;5097968;28;20134;-79
2022/10/03 12:43:05;;;;;;;4.22;0.60;;;17.60;99.90;;;;;;5100083;28;20042;-79
2022/10/03 12:45:33;;;;;;;5.00;0.60;;;17.60;99.90;;;;;;5104174;28;20121;-79
2022/10/03 12:48:36;;;;;;;6.95;1.00;;;17.70;99.90;;;;;;5108621;28;20080;-79
2022/10/03 12:51:18;;;;;;;5.35;0.80;;;17.60;99.90;;;;;;5100098;28;20040;-79
2022/10/03 12:53:54;;;;;;;2.40;0.75;;;17.60;99.90;;;;;;5099497;28;20044;-79
2022/10/03 12:56:40;;;;;;;7.18;1.92;;;17.60;99.90;;;;;;5107647;28;20066;-79
2022/10/03 12:59:31;;;;;;;8.93;1.10;;;17.50;99.90;;;;;;5103246;28;20039;-79
2022/10/03 13:02:29;;;;;;;1.80;0.63;;;17.60;99.90;;;;;;5119263;28;20139;-79
2022/10/03 13:05:13;;;;;;;2.85;0.65;;;17.60;99.90;;;;;;5118232;28;20043;-80
2022/10/03 13:08:01;;;;;;;2.60;0.80;;;17.60;99.90;;;;;;5094502;28;20044;-80
2022/10/03 13:10:36;;;;;;;2.75;0.75;;;17.70;99.90;;;;;;5118516;28;20048;-80
2022/10/03 13:13:41;;;;;;;6.00;1.58;;;17.80;99.90;;;;;;5118771;28;20155;-79
2022/10/03 13:16:42;;;;;;;5.70;0.85;;;17.90;99.90;;;;;;5101132;28;20073;-80
2022/10/03 13:19:26;;;;;;;5.85;1.05;;;17.90;99.90;;;;;;5099172;28;20532;-79
2022/10/03 13:22:05;;;;;;;2.33;0.77;;;17.80;99.90;;;;;;5101747;28;20040;-79
2022/10/03 13:24:35;;;;;;;4.55;0.80;;;17.70;99.90;;;;;;5103191;28;20071;-79
2022/10/03 13:27:16;;;;;;;4.20;0.98;;;17.60;99.90;;;;;;5082670;28;20040;-81
2022/10/03 13:29:54;;;;;;;3.60;0.80;;;17.50;99.90;;;;;;5103222;28;20531;-80
2022/10/03 13:32:36;;;;;;;4.95;0.80;;;17.40;99.90;;;;;;5085662;28;20055;-80
2022/10/03 13:38:18;;;;;;;5.00;1.20;;;17.60;99.90;;;;;;5108595;28;20059;-80
2022/10/03 13:41:04;;;;;;;2.08;0.57;;;17.70;99.90;;;;;;5122244;28;20039;-80
2022/10/03 13:43:35;;;;;;;4.30;0.50;;;17.80;99.90;;;;;;5120961;28;20039;-79
2022/10/03 13:46:24;;;;;;;7.53;0.80;;;17.70;99.90;;;;;;5105995;28;20498;-80
2022/10/03 13:49:01;;;;;;;3.78;0.75;;;17.70;99.90;;;;;;5108400;28;20048;-80
2022/10/03 13:51:57;;;;;;;2.80;0.70;;;17.90;99.90;;;;;;5102241;28;20083;-80
2022/10/03 13:54:47;;;;;;;3.47;0.60;;;17.90;99.90;;;;;;5100379;28;20069;-80
2022/10/03 13:57:25;;;;;;;4.45;0.60;;;17.90;99.90;;;;;;5103314;28;20137;-80
2022/10/03 14:00:03;;;;;;;6.40;0.75;;;17.90;99.90;;;;;;5105514;28;20048;-80
2022/10/03 14:02:40;;;;;;;6.07;1.20;;;17.80;99.90;;;;;;5122707;28;20060;-79
2022/10/03 14:05:32;;;;;;;6.00;0.75;;;17.70;99.90;;;;;;5099876;28;20078;-80
2022/10/03 14:08:28;;;;;;;3.50;0.68;;;17.60;99.90;;;;;;5117786;28;20094;-80
2022/10/03 14:11:03;;;;;;;3.65;0.75;;;17.50;99.90;;;;;;5085076;28;20048;-79
2022/10/03 14:13:51;;;;;;;5.35;1.00;;;17.50;99.90;;;;;;5099444;28;20040;-79
2022/10/03 14:16:41;;;;;;;5.00;0.80;;;17.40;99.90;;;;;;5081767;28;20051;-79
2022/10/03 14:19:17;;;;;;;6.85;0.70;;;17.40;99.90;;;;;;5063639;28;20044;-79
2022/10/03 14:21:55;;;;;;;2.53;0.55;;;17.30;99.90;;;;;;5080676;28;20044;-79
2022/10/03 14:24:37;;;;;;;9.20;1.13;;;17.30;99.90;;;;;;5068565;28;20063;-79
2022/10/03 14:27:45;;;;;;;4.00;0.88;;;17.30;99.90;;;;;;5102995;28;20047;-79
2022/10/03 14:30:12;;;;;;;1.42;0.82;;;17.30;99.90;;;;;;5104410;28;20054;-79
2022/10/03 14:33:16;;;;;;;1.77;0.90;;;17.20;99.90;;;;;;5122521;28;20055;-79
2022/10/03 14:35:56;;;;;;;4.15;0.85;;;17.20;99.90;;;;;;5117653;28;20452;-79
2022/10/03 14:38:56;;;;;;;5.13;0.68;;;17.10;99.90;;;;;;5105024;28;20458;-79
2022/10/03 14:41:24;;;;;;;3.45;0.68;;;17.10;99.90;;;;;;5122117;28;20047;-79